sensor_id;sensor_type;location;lat;lon;timestamp;temperature;humidity
7034;DHT22;3558;53.176;10.412;2023-09-19T02:45:30;22.40;71.50
7034;DHT22;3558;53.176;10.412;2023-09-19T02:47:56;22.40;71.50
7034;DHT22;3558;53.176;10.412;2023-09-19T02:50:22;22.30;71.40
7034;DHT22;3558;53.176;10.412;2023-09-19T02:52:48;22.30;71.50
7034;DHT22;3558;53.176;10.412;2023-09-19T02:55:15;22.30;71.70
7034;DHT22;3558;53.176;10.412;2023-09-19T02:57:46;22.30;72.20
7034;DHT22;3558;53.176;10.412;2023-09-19T03:00:12;22.30;71.70
7034;DHT22;3558;53.176;10.412;2023-09-19T03:02:37;22.30;71.60
7034;DHT22;3558;53.176;10.412;2023-09-19T03:05:05;22.30;71.90
7034;DHT22;3558;53.176;10.412;2023-09-19T03:07:32;22.30;71.80
7034;DHT22;3558;53.176;10.412;2023-09-19T03:09:57;22.20;71.90
7034;DHT22;3558;53.176;10.412;2023-09-19T03:12:23;22.20;71.80
7034;DHT22;3558;53.176;10.412;2023-09-19T03:14:48;22.20;71.70
7034;DHT22;3558;53.176;10.412;2023-09-19T03:17:14;22.20;71.80
7034;DHT22;3558;53.176;10.412;2023-09-19T03:19:40;22.20;71.80
7034;DHT22;3558;53.176;10.412;2023-09-19T03:22:05;22.20;71.90
7034;DHT22;3558;53.176;10.412;2023-09-19T03:24:31;22.20;72.10
7034;DHT22;3558;53.176;10.412;2023-09-19T03:26:57;22.20;72.10
7034;DHT22;3558;53.176;10.412;2023-09-19T03:29:23;22.20;72.20
7034;DHT22;3558;53.176;10.412;2023-09-19T03:31:48;22.10;72.10
7034;DHT22;3558;53.176;10.412;2023-09-19T03:34:14;22.10;72.10
7034;DHT22;3558;53.176;10.412;2023-09-19T03:36:39;22.10;72.10
7034;DHT22;3558;53.176;10.412;2023-09-19T03:39:06;22.10;72.00
7034;DHT22;3558;53.176;10.412;2023-09-19T03:41:32;22.10;71.90
7034;DHT22;3558;53.176;10.412;2023-09-19T03:43:58;22.10;71.80
7034;DHT22;3558;53.176;10.412;2023-09-19T03:46:23;22.00;71.80
7034;DHT22;3558;53.176;10.412;2023-09-19T03:48:50;22.00;71.70
7034;DHT22;3558;53.176;10.412;2023-09-19T03:51:15;22.00;71.80
7034;DHT22;3558;53.176;10.412;2023-09-19T03:53:41;22.00;71.70
7034;DHT22;3558;53.176;10.412;2023-09-19T03:56:06;22.00;71.60
7034;DHT22;3558;53.176;10.412;2023-09-19T03:58:33;22.00;71.60
7034;DHT22;3558;53.176;10.412;2023-09-19T04:01:03;21.90;71.50
7034;DHT22;3558;53.176;10.412;2023-09-19T04:03:28;21.90;71.50
7034;DHT22;3558;53.176;10.412;2023-09-19T04:06:01;21.90;71.40
7034;DHT22;3558;53.176;10.412;2023-09-19T04:08:27;21.90;71.40
7034;DHT22;3558;53.176;10.412;2023-09-19T04:10:52;21.90;71.50
7034;DHT22;3558;53.176;10.412;2023-09-19T04:13:18;21.90;71.40
7034;DHT22;3558;53.176;10.412;2023-09-19T04:15:44;21.80;71.40
7034;DHT22;3558;53.176;10.412;2023-09-19T04:18:11;21.80;71.40
7034;DHT22;3558;53.176;10.412;2023-09-19T04:20:37;21.80;71.50
7034;DHT22;3558;53.176;10.412;2023-09-19T04:23:02;21.80;71.40
7034;DHT22;3558;53.176;10.412;2023-09-19T04:25:30;21.80;71.40
7034;DHT22;3558;53.176;10.412;2023-09-19T04:27:56;21.80;71.40
7034;DHT22;3558;53.176;10.412;2023-09-19T04:30:21;21.80;71.30
7034;DHT22;3558;53.176;10.412;2023-09-19T04:32:47;21.70;71.30
7034;DHT22;3558;53.176;10.412;2023-09-19T04:35:15;21.70;71.30
7034;DHT22;3558;53.176;10.412;2023-09-19T04:37:41;21.70;71.30
7034;DHT22;3558;53.176;10.412;2023-09-19T04:40:10;21.70;71.30
7034;DHT22;3558;53.176;10.412;2023-09-19T04:42:40;21.70;71.20
7034;DHT22;3558;53.176;10.412;2023-09-19T04:45:07;21.60;71.10
7034;DHT22;3558;53.176;10.412;2023-09-19T04:47:35;21.60;71.10
7034;DHT22;3558;53.176;10.412;2023-09-19T04:50:00;21.60;71.10
7034;DHT22;3558;53.176;10.412;2023-09-19T04:52:26;21.60;71.00
7034;DHT22;3558;53.176;10.412;2023-09-19T04:54:51;21.60;71.10
7034;DHT22;3558;53.176;10.412;2023-09-19T04:57:17;21.60;71.00
7034;DHT22;3558;53.176;10.412;2023-09-19T04:59:43;21.50;70.90
7034;DHT22;3558;53.176;10.412;2023-09-19T05:02:08;21.50;70.80
7034;DHT22;3558;53.176;10.412;2023-09-19T05:04:34;21.50;70.80
7034;DHT22;3558;53.176;10.412;2023-09-19T05:07:00;21.50;70.80
7034;DHT22;3558;53.176;10.412;2023-09-19T05:09:28;21.40;70.70
7034;DHT22;3558;53.176;10.412;2023-09-19T05:11:54;21.40;70.80
7034;DHT22;3558;53.176;10.412;2023-09-19T05:14:19;21.40;70.80
7034;DHT22;3558;53.176;10.412;2023-09-19T05:16:46;21.40;70.70
7034;DHT22;3558;53.176;10.412;2023-09-19T05:19:12;21.40;70.70
7034;DHT22;3558;53.176;10.412;2023-09-19T05:21:37;21.40;70.70
7034;DHT22;3558;53.176;10.412;2023-09-19T05:24:05;21.30;70.70
7034;DHT22;3558;53.176;10.412;2023-09-19T05:26:32;21.30;70.80
7034;DHT22;3558;53.176;10.412;2023-09-19T05:28:57;21.30;70.70
7034;DHT22;3558;53.176;10.412;2023-09-19T05:31:23;21.30;70.70
7034;DHT22;3558;53.176;10.412;2023-09-19T05:33:49;21.20;70.80
7034;DHT22;3558;53.176;10.412;2023-09-19T05:36:15;21.20;70.70
7034;DHT22;3558;53.176;10.412;2023-09-19T05:38:42;21.20;70.70
7034;DHT22;3558;53.176;10.412;2023-09-19T05:41:08;21.20;70.60
7034;DHT22;3558;53.176;10.412;2023-09-19T05:43:35;21.20;70.60
7034;DHT22;3558;53.176;10.412;2023-09-19T05:46:03;21.20;70.80
7034;DHT22;3558;53.176;10.412;2023-09-19T05:48:28;21.10;70.60
7034;DHT22;3558;53.176;10.412;2023-09-19T05:50:54;21.10;70.60
7034;DHT22;3558;53.176;10.412;2023-09-19T05:53:19;21.10;70.50
7034;DHT22;3558;53.176;10.412;2023-09-19T05:55:45;21.10;70.50
7034;DHT22;3558;53.176;10.412;2023-09-19T05:58:11;21.10;70.60
7034;DHT22;3558;53.176;10.412;2023-09-19T06:00:39;21.10;70.60
7034;DHT22;3558;53.176;10.412;2023-09-19T06:03:07;21.00;70.60
7034;DHT22;3558;53.176;10.412;2023-09-19T06:05:33;21.00;70.60
7034;DHT22;3558;53.176;10.412;2023-09-19T06:07:58;21.00;70.60
7034;DHT22;3558;53.176;10.412;2023-09-19T06:10:33;21.00;70.60
7034;DHT22;3558;53.176;10.412;2023-09-19T06:12:59;21.00;70.70
7034;DHT22;3558;53.176;10.412;2023-09-19T06:15:25;21.00;70.80
7034;DHT22;3558;53.176;10.412;2023-09-19T06:17:53;21.00;71.00
7034;DHT22;3558;53.176;10.412;2023-09-19T06:20:23;21.00;71.00
7034;DHT22;3558;53.176;10.412;2023-09-19T06:22:51;21.00;71.10
7034;DHT22;3558;53.176;10.412;2023-09-19T06:25:17;20.90;71.10
7034;DHT22;3558;53.176;10.412;2023-09-19T06:27:52;21.00;71.20
7034;DHT22;3558;53.176;10.412;2023-09-19T06:30:20;21.00;71.40
7034;DHT22;3558;53.176;10.412;2023-09-19T06:32:45;20.90;71.50
7034;DHT22;3558;53.176;10.412;2023-09-19T06:35:12;21.00;71.60
7034;DHT22;3558;53.176;10.412;2023-09-19T06:37:38;20.90;71.70
7034;DHT22;3558;53.176;10.412;2023-09-19T06:40:08;21.00;71.90
7034;DHT22;3558;53.176;10.412;2023-09-19T06:42:40;20.90;72.20
7034;DHT22;3558;53.176;10.412;2023-09-19T06:45:06;20.90;72.20
7034;DHT22;3558;53.176;10.412;2023-09-19T06:47:32;21.00;72.30
7034;DHT22;3558;53.176;10.412;2023-09-19T06:49:57;21.00;72.40
7034;DHT22;3558;53.176;10.412;2023-09-19T06:52:23;21.00;72.40
7034;DHT22;3558;53.176;10.412;2023-09-19T06:54:49;21.00;72.40
7034;DHT22;3558;53.176;10.412;2023-09-19T06:57:16;21.00;72.50
7034;DHT22;3558;53.176;10.412;2023-09-19T06:59:41;21.00;72.50
7034;DHT22;3558;53.176;10.412;2023-09-19T07:02:07;21.10;72.70
7034;DHT22;3558;53.176;10.412;2023-09-19T07:04:33;21.10;72.80
7034;DHT22;3558;53.176;10.412;2023-09-19T07:06:59;21.10;72.90
7034;DHT22;3558;53.176;10.412;2023-09-19T07:09:24;21.20;72.90
7034;DHT22;3558;53.176;10.412;2023-09-19T07:11:52;21.20;73.00
7034;DHT22;3558;53.176;10.412;2023-09-19T07:14:18;21.20;73.10
7034;DHT22;3558;53.176;10.412;2023-09-19T07:16:44;21.30;73.30
7034;DHT22;3558;53.176;10.412;2023-09-19T07:19:10;21.30;73.30
7034;DHT22;3558;53.176;10.412;2023-09-19T07:21:36;21.30;73.40
7034;DHT22;3558;53.176;10.412;2023-09-19T07:24:04;21.40;73.70
7034;DHT22;3558;53.176;10.412;2023-09-19T07:26:30;21.40;73.50
7034;DHT22;3558;53.176;10.412;2023-09-19T07:28:56;21.40;73.40
7034;DHT22;3558;53.176;10.412;2023-09-19T07:31:22;21.50;73.50
7034;DHT22;3558;53.176;10.412;2023-09-19T07:33:48;21.50;73.50
7034;DHT22;3558;53.176;10.412;2023-09-19T07:36:14;21.60;74.00
7034;DHT22;3558;53.176;10.412;2023-09-19T07:38:40;21.60;73.40
7034;DHT22;3558;53.176;10.412;2023-09-19T07:41:06;21.60;73.50
7034;DHT22;3558;53.176;10.412;2023-09-19T07:43:32;21.70;73.60
7034;DHT22;3558;53.176;10.412;2023-09-19T07:46:03;21.70;73.60
7034;DHT22;3558;53.176;10.412;2023-09-19T07:48:29;21.70;73.70
7034;DHT22;3558;53.176;10.412;2023-09-19T07:50:54;21.70;73.70
7034;DHT22;3558;53.176;10.412;2023-09-19T07:53:20;21.80;73.80
7034;DHT22;3558;53.176;10.412;2023-09-19T07:55:45;21.80;74.00
7034;DHT22;3558;53.176;10.412;2023-09-19T07:58:13;21.80;74.10
7034;DHT22;3558;53.176;10.412;2023-09-19T08:00:39;21.80;74.10
7034;DHT22;3558;53.176;10.412;2023-09-19T08:03:04;21.90;74.40
7034;DHT22;3558;53.176;10.412;2023-09-19T08:05:31;21.90;74.60
7034;DHT22;3558;53.176;10.412;2023-09-19T08:07:58;22.00;74.70
7034;DHT22;3558;53.176;10.412;2023-09-19T08:10:24;22.00;74.90
7034;DHT22;3558;53.176;10.412;2023-09-19T08:12:53;22.00;75.20
7034;DHT22;3558;53.176;10.412;2023-09-19T08:15:23;22.10;75.30
7034;DHT22;3558;53.176;10.412;2023-09-19T08:17:49;22.10;75.30
7034;DHT22;3558;53.176;10.412;2023-09-19T08:20:15;22.20;75.40
7034;DHT22;3558;53.176;10.412;2023-09-19T08:22:44;22.20;75.30
7034;DHT22;3558;53.176;10.412;2023-09-19T08:25:11;22.30;75.40
7034;DHT22;3558;53.176;10.412;2023-09-19T08:27:38;22.30;75.30
7034;DHT22;3558;53.176;10.412;2023-09-19T08:30:04;22.40;75.60
7034;DHT22;3558;53.176;10.412;2023-09-19T08:32:31;22.40;75.40
7034;DHT22;3558;53.176;10.412;2023-09-19T08:34:57;22.40;75.10
7034;DHT22;3558;53.176;10.412;2023-09-19T08:37:22;22.50;74.80
7034;DHT22;3558;53.176;10.412;2023-09-19T08:39:48;22.50;74.70
7034;DHT22;3558;53.176;10.412;2023-09-19T08:42:13;22.50;74.70
7034;DHT22;3558;53.176;10.412;2023-09-19T08:44:39;22.60;74.70
7034;DHT22;3558;53.176;10.412;2023-09-19T08:47:15;22.70;74.50
7034;DHT22;3558;53.176;10.412;2023-09-19T08:49:53;22.70;74.40
7034;DHT22;3558;53.176;10.412;2023-09-19T08:52:28;22.80;74.40
7034;DHT22;3558;53.176;10.412;2023-09-19T08:54:58;22.80;74.10
7034;DHT22;3558;53.176;10.412;2023-09-19T08:57:29;22.80;73.80
7034;DHT22;3558;53.176;10.412;2023-09-19T08:59:55;22.90;73.80
7034;DHT22;3558;53.176;10.412;2023-09-19T09:02:22;23.00;73.80
7034;DHT22;3558;53.176;10.412;2023-09-19T09:04:49;23.00;73.70
7034;DHT22;3558;53.176;10.412;2023-09-19T09:07:16;23.00;73.70
7034;DHT22;3558;53.176;10.412;2023-09-19T09:09:44;23.10;73.40
7034;DHT22;3558;53.176;10.412;2023-09-19T09:12:14;23.20;73.00
7034;DHT22;3558;53.176;10.412;2023-09-19T09:14:44;23.20;72.70
7034;DHT22;3558;53.176;10.412;2023-09-19T09:17:11;23.30;72.60
7034;DHT22;3558;53.176;10.412;2023-09-19T09:19:37;23.40;72.40
7034;DHT22;3558;53.176;10.412;2023-09-19T09:22:10;23.40;72.10
7034;DHT22;3558;53.176;10.412;2023-09-19T09:24:37;23.50;72.10
7034;DHT22;3558;53.176;10.412;2023-09-19T09:27:05;23.50;71.70
7034;DHT22;3558;53.176;10.412;2023-09-19T09:29:42;23.60;71.50
7034;DHT22;3558;53.176;10.412;2023-09-19T09:32:25;23.60;71.20
7034;DHT22;3558;53.176;10.412;2023-09-19T09:34:59;23.70;71.10
7034;DHT22;3558;53.176;10.412;2023-09-19T09:37:26;23.70;70.80
7034;DHT22;3558;53.176;10.412;2023-09-19T09:40:02;23.70;70.50
7034;DHT22;3558;53.176;10.412;2023-09-19T09:42:50;23.70;70.20
7034;DHT22;3558;53.176;10.412;2023-09-19T09:45:22;23.80;69.90
7034;DHT22;3558;53.176;10.412;2023-09-19T09:48:02;23.80;69.80
7034;DHT22;3558;53.176;10.412;2023-09-19T09:50:46;23.80;69.60
7034;DHT22;3558;53.176;10.412;2023-09-19T09:53:29;23.90;69.50
7034;DHT22;3558;53.176;10.412;2023-09-19T09:58:37;24.00;69.80
7034;DHT22;3558;53.176;10.412;2023-09-19T10:01:06;24.00;69.10
7034;DHT22;3558;53.176;10.412;2023-09-19T10:03:38;24.00;68.90
7034;DHT22;3558;53.176;10.412;2023-09-19T10:06:10;24.10;68.70
7034;DHT22;3558;53.176;10.412;2023-09-19T10:09:03;24.10;68.10
7034;DHT22;3558;53.176;10.412;2023-09-19T10:12:06;24.10;67.80
7034;DHT22;3558;53.176;10.412;2023-09-19T10:14:37;24.20;67.70
7034;DHT22;3558;53.176;10.412;2023-09-19T10:17:05;24.30;67.40
7034;DHT22;3558;53.176;10.412;2023-09-19T10:19:54;24.30;67.10
7034;DHT22;3558;53.176;10.412;2023-09-19T10:22:23;24.40;66.90
7034;DHT22;3558;53.176;10.412;2023-09-19T10:24:50;24.40;66.90
7034;DHT22;3558;53.176;10.412;2023-09-19T10:27:19;24.40;66.70
7034;DHT22;3558;53.176;10.412;2023-09-19T10:29:49;24.50;66.70
7034;DHT22;3558;53.176;10.412;2023-09-19T10:32:16;24.50;66.60
7034;DHT22;3558;53.176;10.412;2023-09-19T10:34:47;24.60;66.70
7034;DHT22;3558;53.176;10.412;2023-09-19T10:37:16;24.60;67.00
7034;DHT22;3558;53.176;10.412;2023-09-19T10:39:45;24.60;66.50
7034;DHT22;3558;53.176;10.412;2023-09-19T10:42:16;24.70;66.40
7034;DHT22;3558;53.176;10.412;2023-09-19T10:44:45;24.80;66.40
7034;DHT22;3558;53.176;10.412;2023-09-19T10:47:12;24.90;66.40
7034;DHT22;3558;53.176;10.412;2023-09-19T10:49:45;24.90;66.40
7034;DHT22;3558;53.176;10.412;2023-09-19T10:52:13;24.90;66.10
7034;DHT22;3558;53.176;10.412;2023-09-19T10:54:46;25.00;65.80
7034;DHT22;3558;53.176;10.412;2023-09-19T10:57:19;25.00;65.40
7034;DHT22;3558;53.176;10.412;2023-09-19T11:00:04;25.10;65.00
7034;DHT22;3558;53.176;10.412;2023-09-19T11:05:34;25.20;64.70
7034;DHT22;3558;53.176;10.412;2023-09-19T11:08:00;25.20;64.70
7034;DHT22;3558;53.176;10.412;2023-09-19T11:10:48;25.20;64.60
7034;DHT22;3558;53.176;10.412;2023-09-19T11:13:30;25.30;64.30
7034;DHT22;3558;53.176;10.412;2023-09-19T11:16:03;25.30;64.20
7034;DHT22;3558;53.176;10.412;2023-09-19T11:26:48;25.40;62.90
7034;DHT22;3558;53.176;10.412;2023-09-19T11:29:30;25.40;62.60
7034;DHT22;3558;53.176;10.412;2023-09-19T11:31:57;25.50;62.70
7034;DHT22;3558;53.176;10.412;2023-09-19T11:34:38;25.40;62.40
7034;DHT22;3558;53.176;10.412;2023-09-19T11:39:37;25.50;61.90
7034;DHT22;3558;53.176;10.412;2023-09-19T11:42:44;25.50;61.80
7034;DHT22;3558;53.176;10.412;2023-09-19T11:48:16;25.50;61.50
7034;DHT22;3558;53.176;10.412;2023-09-19T11:50:46;25.50;61.30
7034;DHT22;3558;53.176;10.412;2023-09-19T11:53:13;25.60;61.40
7034;DHT22;3558;53.176;10.412;2023-09-19T11:55:39;25.60;61.50
7034;DHT22;3558;53.176;10.412;2023-09-19T11:58:07;25.60;61.50
7034;DHT22;3558;53.176;10.412;2023-09-19T12:00:34;25.60;61.30
7034;DHT22;3558;53.176;10.412;2023-09-19T12:03:08;25.60;61.30
7034;DHT22;3558;53.176;10.412;2023-09-19T12:05:34;25.60;61.30
7034;DHT22;3558;53.176;10.412;2023-09-19T12:08:00;25.60;61.10
7034;DHT22;3558;53.176;10.412;2023-09-19T12:10:27;25.70;61.20
7034;DHT22;3558;53.176;10.412;2023-09-19T12:12:52;25.70;61.20
7034;DHT22;3558;53.176;10.412;2023-09-19T12:15:25;25.70;60.90
7034;DHT22;3558;53.176;10.412;2023-09-19T12:18:00;25.70;60.70
7034;DHT22;3558;53.176;10.412;2023-09-19T12:20:40;25.70;60.40
7034;DHT22;3558;53.176;10.412;2023-09-19T12:23:13;25.80;60.30
7034;DHT22;3558;53.176;10.412;2023-09-19T12:25:45;25.70;60.20
7034;DHT22;3558;53.176;10.412;2023-09-19T12:28:16;25.90;60.20
7034;DHT22;3558;53.176;10.412;2023-09-19T12:30:47;25.90;60.10
7034;DHT22;3558;53.176;10.412;2023-09-19T12:33:17;25.90;60.00
7034;DHT22;3558;53.176;10.412;2023-09-19T12:35:45;25.90;59.90
7034;DHT22;3558;53.176;10.412;2023-09-19T12:38:10;26.00;59.90
7034;DHT22;3558;53.176;10.412;2023-09-19T12:40:38;26.00;59.90
7034;DHT22;3558;53.176;10.412;2023-09-19T12:43:08;26.00;59.90
7034;DHT22;3558;53.176;10.412;2023-09-19T12:45:34;26.00;59.80
7034;DHT22;3558;53.176;10.412;2023-09-19T12:48:22;26.10;59.70
7034;DHT22;3558;53.176;10.412;2023-09-19T12:51:06;26.10;59.40
7034;DHT22;3558;53.176;10.412;2023-09-19T12:53:37;26.10;59.30
7034;DHT22;3558;53.176;10.412;2023-09-19T12:56:08;26.20;59.20
7034;DHT22;3558;53.176;10.412;2023-09-19T12:58:48;26.20;59.00
7034;DHT22;3558;53.176;10.412;2023-09-19T13:01:14;26.20;59.00
7034;DHT22;3558;53.176;10.412;2023-09-19T13:03:40;26.20;58.80
7034;DHT22;3558;53.176;10.412;2023-09-19T13:06:06;26.30;58.90
7034;DHT22;3558;53.176;10.412;2023-09-19T13:08:38;26.30;58.90
7034;DHT22;3558;53.176;10.412;2023-09-19T13:13:45;26.40;58.70
7034;DHT22;3558;53.176;10.412;2023-09-19T13:16:13;26.40;58.50
7034;DHT22;3558;53.176;10.412;2023-09-19T13:18:49;26.40;58.20
7034;DHT22;3558;53.176;10.412;2023-09-19T13:21:30;26.40;58.00
7034;DHT22;3558;53.176;10.412;2023-09-19T13:24:22;26.40;57.90
7034;DHT22;3558;53.176;10.412;2023-09-19T13:26:49;26.40;58.30
7034;DHT22;3558;53.176;10.412;2023-09-19T13:29:15;26.50;57.80
7034;DHT22;3558;53.176;10.412;2023-09-19T13:31:49;26.50;57.90
7034;DHT22;3558;53.176;10.412;2023-09-19T13:34:15;26.50;58.00
7034;DHT22;3558;53.176;10.412;2023-09-19T13:36:44;26.50;58.10
7034;DHT22;3558;53.176;10.412;2023-09-19T13:39:09;26.60;58.10
7034;DHT22;3558;53.176;10.412;2023-09-19T13:41:38;26.50;57.70
7034;DHT22;3558;53.176;10.412;2023-09-19T13:44:04;26.60;57.70
7034;DHT22;3558;53.176;10.412;2023-09-19T13:46:29;26.60;57.60
7034;DHT22;3558;53.176;10.412;2023-09-19T13:48:58;26.60;57.50
7034;DHT22;3558;53.176;10.412;2023-09-19T13:51:26;26.60;57.60
7034;DHT22;3558;53.176;10.412;2023-09-19T13:53:51;26.60;57.60
7034;DHT22;3558;53.176;10.412;2023-09-19T13:56:17;26.60;57.60
7034;DHT22;3558;53.176;10.412;2023-09-19T13:58:42;26.60;57.30
7034;DHT22;3558;53.176;10.412;2023-09-19T14:01:08;26.70;57.30
7034;DHT22;3558;53.176;10.412;2023-09-19T14:03:41;26.70;57.20
7034;DHT22;3558;53.176;10.412;2023-09-19T14:06:11;26.70;57.30
7034;DHT22;3558;53.176;10.412;2023-09-19T14:08:37;26.80;57.50
7034;DHT22;3558;53.176;10.412;2023-09-19T14:11:07;26.70;57.40
7034;DHT22;3558;53.176;10.412;2023-09-19T14:13:33;26.80;57.50
7034;DHT22;3558;53.176;10.412;2023-09-19T14:16:03;26.80;57.50
7034;DHT22;3558;53.176;10.412;2023-09-19T14:18:30;26.80;57.60
7034;DHT22;3558;53.176;10.412;2023-09-19T14:20:56;26.90;57.60
7034;DHT22;3558;53.176;10.412;2023-09-19T14:23:21;26.90;57.60
7034;DHT22;3558;53.176;10.412;2023-09-19T14:25:48;26.90;57.70
7034;DHT22;3558;53.176;10.412;2023-09-19T14:28:14;27.00;57.80
7034;DHT22;3558;53.176;10.412;2023-09-19T14:30:39;26.90;57.70
7034;DHT22;3558;53.176;10.412;2023-09-19T14:33:05;26.90;57.60
7034;DHT22;3558;53.176;10.412;2023-09-19T14:35:31;27.00;57.50
7034;DHT22;3558;53.176;10.412;2023-09-19T14:37:56;27.00;57.50
7034;DHT22;3558;53.176;10.412;2023-09-19T14:40:22;26.90;57.40
7034;DHT22;3558;53.176;10.412;2023-09-19T14:42:48;27.00;57.40
7034;DHT22;3558;53.176;10.412;2023-09-19T14:45:13;27.00;57.40
7034;DHT22;3558;53.176;10.412;2023-09-19T14:47:43;27.00;57.40
7034;DHT22;3558;53.176;10.412;2023-09-19T14:50:09;27.00;57.40
7034;DHT22;3558;53.176;10.412;2023-09-19T14:52:35;27.00;57.40
7034;DHT22;3558;53.176;10.412;2023-09-19T14:55:01;27.00;57.30
7034;DHT22;3558;53.176;10.412;2023-09-19T14:57:27;27.00;57.30
7034;DHT22;3558;53.176;10.412;2023-09-19T14:59:53;27.00;57.30
7034;DHT22;3558;53.176;10.412;2023-09-19T15:02:18;27.00;57.30
7034;DHT22;3558;53.176;10.412;2023-09-19T15:04:44;26.90;57.60
7034;DHT22;3558;53.176;10.412;2023-09-19T15:07:12;26.90;57.60
7034;DHT22;3558;53.176;10.412;2023-09-19T15:09:38;26.90;57.70
7034;DHT22;3558;53.176;10.412;2023-09-19T15:12:03;26.90;57.80
7034;DHT22;3558;53.176;10.412;2023-09-19T15:14:29;26.90;57.80
7034;DHT22;3558;53.176;10.412;2023-09-19T15:16:55;26.90;58.00
7034;DHT22;3558;53.176;10.412;2023-09-19T15:19:21;26.90;58.10
7034;DHT22;3558;53.176;10.412;2023-09-19T15:21:48;26.90;58.40
7034;DHT22;3558;53.176;10.412;2023-09-19T15:24:13;26.80;58.30
7034;DHT22;3558;53.176;10.412;2023-09-19T15:26:40;26.90;58.40
7034;DHT22;3558;53.176;10.412;2023-09-19T15:29:06;26.80;58.60
7034;DHT22;3558;53.176;10.412;2023-09-19T15:31:32;26.90;58.70
7034;DHT22;3558;53.176;10.412;2023-09-19T15:33:58;26.80;58.40
7034;DHT22;3558;53.176;10.412;2023-09-19T15:36:24;26.80;58.50
7034;DHT22;3558;53.176;10.412;2023-09-19T15:39:05;26.80;58.50
7034;DHT22;3558;53.176;10.412;2023-09-19T15:41:41;26.80;58.50
7034;DHT22;3558;53.176;10.412;2023-09-19T15:44:17;26.80;58.60
7034;DHT22;3558;53.176;10.412;2023-09-19T15:46:44;26.70;58.70
7034;DHT22;3558;53.176;10.412;2023-09-19T15:49:09;26.80;58.70
7034;DHT22;3558;53.176;10.412;2023-09-19T15:51:35;26.70;58.70
7034;DHT22;3558;53.176;10.412;2023-09-19T15:54:02;26.70;58.60
7034;DHT22;3558;53.176;10.412;2023-09-19T15:56:33;26.70;58.70
7034;DHT22;3558;53.176;10.412;2023-09-19T15:59:00;26.70;59.20
7034;DHT22;3558;53.176;10.412;2023-09-19T16:01:25;26.70;59.20
7034;DHT22;3558;53.176;10.412;2023-09-19T16:03:53;26.70;59.30
7034;DHT22;3558;53.176;10.412;2023-09-19T16:06:22;26.60;59.10
7034;DHT22;3558;53.176;10.412;2023-09-19T16:08:52;26.60;59.50
7034;DHT22;3558;53.176;10.412;2023-09-19T16:11:18;26.60;59.30
7034;DHT22;3558;53.176;10.412;2023-09-19T16:13:49;26.60;59.50
7034;DHT22;3558;53.176;10.412;2023-09-19T16:16:15;26.50;59.10
7034;DHT22;3558;53.176;10.412;2023-09-19T16:18:52;26.50;58.90
7034;DHT22;3558;53.176;10.412;2023-09-19T16:21:19;26.50;59.40
7034;DHT22;3558;53.176;10.412;2023-09-19T16:23:46;26.50;59.50
7034;DHT22;3558;53.176;10.412;2023-09-19T16:26:12;26.40;59.00
7034;DHT22;3558;53.176;10.412;2023-09-19T16:28:39;26.40;58.80
7034;DHT22;3558;53.176;10.412;2023-09-19T16:31:06;26.40;58.90
7034;DHT22;3558;53.176;10.412;2023-09-19T16:33:36;26.30;58.80
7034;DHT22;3558;53.176;10.412;2023-09-19T16:36:09;26.30;59.30
7034;DHT22;3558;53.176;10.412;2023-09-19T16:38:36;26.30;59.20
7034;DHT22;3558;53.176;10.412;2023-09-19T16:41:02;26.30;58.80
7034;DHT22;3558;53.176;10.412;2023-09-19T16:43:29;26.30;58.60
7034;DHT22;3558;53.176;10.412;2023-09-19T16:45:59;26.20;58.50
7034;DHT22;3558;53.176;10.412;2023-09-19T16:48:27;26.20;58.30
7034;DHT22;3558;53.176;10.412;2023-09-19T16:50:53;26.20;58.10
7034;DHT22;3558;53.176;10.412;2023-09-19T16:53:19;26.10;57.90
7034;DHT22;3558;53.176;10.412;2023-09-19T16:55:46;26.10;57.90
7034;DHT22;3558;53.176;10.412;2023-09-19T16:58:13;26.10;57.90
7034;DHT22;3558;53.176;10.412;2023-09-19T17:00:39;26.10;57.40
7034;DHT22;3558;53.176;10.412;2023-09-19T17:03:05;26.00;57.30
7034;DHT22;3558;53.176;10.412;2023-09-19T17:05:31;26.00;57.30
7034;DHT22;3558;53.176;10.412;2023-09-19T17:07:56;26.00;57.00
7034;DHT22;3558;53.176;10.412;2023-09-19T17:10:30;26.00;56.90
7034;DHT22;3558;53.176;10.412;2023-09-19T17:12:56;25.90;56.80
7034;DHT22;3558;53.176;10.412;2023-09-19T17:15:21;25.90;56.60
7034;DHT22;3558;53.176;10.412;2023-09-19T17:17:49;25.80;56.50
7034;DHT22;3558;53.176;10.412;2023-09-19T17:20:15;25.80;56.50
7034;DHT22;3558;53.176;10.412;2023-09-19T17:22:41;25.70;56.30
7034;DHT22;3558;53.176;10.412;2023-09-19T17:25:07;25.70;56.30
7034;DHT22;3558;53.176;10.412;2023-09-19T17:27:33;25.70;56.40
7034;DHT22;3558;53.176;10.412;2023-09-19T17:29:58;25.60;56.20
7034;DHT22;3558;53.176;10.412;2023-09-19T17:32:23;25.60;56.30
7034;DHT22;3558;53.176;10.412;2023-09-19T17:34:49;25.60;56.30
7034;DHT22;3558;53.176;10.412;2023-09-19T17:37:15;25.50;56.20
7034;DHT22;3558;53.176;10.412;2023-09-19T17:39:40;25.50;56.20
7034;DHT22;3558;53.176;10.412;2023-09-19T17:42:06;25.50;56.20
7034;DHT22;3558;53.176;10.412;2023-09-19T17:44:33;25.50;56.30
7034;DHT22;3558;53.176;10.412;2023-09-19T17:47:00;25.40;56.20
7034;DHT22;3558;53.176;10.412;2023-09-19T17:49:26;25.40;56.30
7034;DHT22;3558;53.176;10.412;2023-09-19T17:51:52;25.30;56.20
7034;DHT22;3558;53.176;10.412;2023-09-19T17:54:18;25.30;56.20
7034;DHT22;3558;53.176;10.412;2023-09-19T17:56:43;25.30;56.30
7034;DHT22;3558;53.176;10.412;2023-09-19T17:59:09;25.20;56.20
7034;DHT22;3558;53.176;10.412;2023-09-19T18:01:35;25.20;56.30
7034;DHT22;3558;53.176;10.412;2023-09-19T18:04:02;25.20;56.30
7034;DHT22;3558;53.176;10.412;2023-09-19T18:06:29;25.10;56.20
7034;DHT22;3558;53.176;10.412;2023-09-19T18:08:56;25.10;56.30
7034;DHT22;3558;53.176;10.412;2023-09-19T18:11:22;25.10;56.30
7034;DHT22;3558;53.176;10.412;2023-09-19T18:13:52;25.00;56.40
7034;DHT22;3558;53.176;10.412;2023-09-19T18:16:20;25.00;56.40
7034;DHT22;3558;53.176;10.412;2023-09-19T18:18:46;25.00;56.50
7034;DHT22;3558;53.176;10.412;2023-09-19T18:21:17;24.90;56.40
7034;DHT22;3558;53.176;10.412;2023-09-19T18:23:55;24.90;56.40
7034;DHT22;3558;53.176;10.412;2023-09-19T18:26:22;24.90;56.40
7034;DHT22;3558;53.176;10.412;2023-09-19T18:28:49;24.90;56.50
7034;DHT22;3558;53.176;10.412;2023-09-19T18:31:14;24.90;56.40
7034;DHT22;3558;53.176;10.412;2023-09-19T18:33:40;24.80;56.50
7034;DHT22;3558;53.176;10.412;2023-09-19T18:36:07;24.80;56.50
7034;DHT22;3558;53.176;10.412;2023-09-19T18:38:37;24.80;56.50
7034;DHT22;3558;53.176;10.412;2023-09-19T18:41:07;24.80;56.50
7034;DHT22;3558;53.176;10.412;2023-09-19T18:43:33;24.70;56.50
7034;DHT22;3558;53.176;10.412;2023-09-19T18:46:00;24.70;56.60
7034;DHT22;3558;53.176;10.412;2023-09-19T18:48:25;24.70;56.50
7034;DHT22;3558;53.176;10.412;2023-09-19T18:50:51;24.70;56.60
7034;DHT22;3558;53.176;10.412;2023-09-19T18:53:17;24.60;56.50
7034;DHT22;3558;53.176;10.412;2023-09-19T18:55:44;24.60;56.50
7034;DHT22;3558;53.176;10.412;2023-09-19T18:58:10;24.60;56.60